sensor_id;sensor_type;location;lat;lon;timestamp;temperature;humidity
31207;DHT22;17834;52.992;8.856;2023-05-13T00:01:11;11.00;99.90
31207;DHT22;17834;52.992;8.856;2023-05-13T00:03:36;10.90;99.90
31207;DHT22;17834;52.992;8.856;2023-05-13T00:06:02;10.70;99.90
31207;DHT22;17834;52.992;8.856;2023-05-13T00:08:28;10.60;99.90
31207;DHT22;17834;52.992;8.856;2023-05-13T00:10:53;10.50;99.90
31207;DHT22;17834;52.992;8.856;2023-05-13T00:13:19;10.30;99.90
31207;DHT22;17834;52.992;8.856;2023-05-13T00:15:44;10.30;99.90
31207;DHT22;17834;52.992;8.856;2023-05-13T00:18:10;10.20;99.90
31207;DHT22;17834;52.992;8.856;2023-05-13T00:20:36;10.20;99.90
31207;DHT22;17834;52.992;8.856;2023-05-13T00:23:02;10.10;99.90
31207;DHT22;17834;52.992;8.856;2023-05-13T00:25:27;10.00;99.90
31207;DHT22;17834;52.992;8.856;2023-05-13T00:27:53;9.90;99.90
31207;DHT22;17834;52.992;8.856;2023-05-13T00:30:18;9.90;99.90
31207;DHT22;17834;52.992;8.856;2023-05-13T00:32:45;9.80;99.90
31207;DHT22;17834;52.992;8.856;2023-05-13T00:35:11;9.80;99.90
31207;DHT22;17834;52.992;8.856;2023-05-13T00:37:36;9.70;99.90
31207;DHT22;17834;52.992;8.856;2023-05-13T00:40:02;9.60;99.90
31207;DHT22;17834;52.992;8.856;2023-05-13T00:42:28;9.60;99.90
31207;DHT22;17834;52.992;8.856;2023-05-13T00:44:53;9.50;99.90
31207;DHT22;17834;52.992;8.856;2023-05-13T00:47:19;9.40;99.90
31207;DHT22;17834;52.992;8.856;2023-05-13T00:49:46;9.40;99.90
31207;DHT22;17834;52.992;8.856;2023-05-13T00:52:11;9.30;99.90
31207;DHT22;17834;52.992;8.856;2023-05-13T00:54:37;9.30;99.90
31207;DHT22;17834;52.992;8.856;2023-05-13T00:57:03;9.20;99.90
31207;DHT22;17834;52.992;8.856;2023-05-13T00:59:29;9.20;99.90
31207;DHT22;17834;52.992;8.856;2023-05-13T01:04:36;9.10;99.90
31207;DHT22;17834;52.992;8.856;2023-05-13T01:07:28;9.10;99.90
31207;DHT22;17834;52.992;8.856;2023-05-13T01:10:08;9.00;99.90
31207;DHT22;17834;52.992;8.856;2023-05-13T01:12:37;9.00;99.90
31207;DHT22;17834;52.992;8.856;2023-05-13T01:15:15;8.90;99.90
31207;DHT22;17834;52.992;8.856;2023-05-13T01:17:43;8.90;99.90
31207;DHT22;17834;52.992;8.856;2023-05-13T01:20:12;8.80;99.90
31207;DHT22;17834;52.992;8.856;2023-05-13T01:22:38;8.80;99.90
31207;DHT22;17834;52.992;8.856;2023-05-13T01:25:03;8.80;99.90
31207;DHT22;17834;52.992;8.856;2023-05-13T01:27:29;8.70;99.90
31207;DHT22;17834;52.992;8.856;2023-05-13T01:29:56;8.70;99.90
31207;DHT22;17834;52.992;8.856;2023-05-13T01:32:22;8.60;99.90
31207;DHT22;17834;52.992;8.856;2023-05-13T01:34:49;8.70;99.90
31207;DHT22;17834;52.992;8.856;2023-05-13T01:37:15;8.60;99.90
31207;DHT22;17834;52.992;8.856;2023-05-13T01:39:41;8.50;99.90
31207;DHT22;17834;52.992;8.856;2023-05-13T01:42:06;8.50;99.90
31207;DHT22;17834;52.992;8.856;2023-05-13T01:44:32;8.40;99.90
31207;DHT22;17834;52.992;8.856;2023-05-13T01:46:58;8.40;99.90
31207;DHT22;17834;52.992;8.856;2023-05-13T01:49:23;8.40;99.90
31207;DHT22;17834;52.992;8.856;2023-05-13T01:51:50;8.30;99.90
31207;DHT22;17834;52.992;8.856;2023-05-13T01:54:15;8.30;99.90
31207;DHT22;17834;52.992;8.856;2023-05-13T01:56:41;8.30;99.90
31207;DHT22;17834;52.992;8.856;2023-05-13T01:59:09;8.20;99.90
31207;DHT22;17834;52.992;8.856;2023-05-13T02:01:35;8.20;99.90
31207;DHT22;17834;52.992;8.856;2023-05-13T02:04:01;8.10;99.90
31207;DHT22;17834;52.992;8.856;2023-05-13T02:06:27;8.20;99.90
31207;DHT22;17834;52.992;8.856;2023-05-13T02:08:53;8.10;99.90
31207;DHT22;17834;52.992;8.856;2023-05-13T02:11:19;8.10;99.90
31207;DHT22;17834;52.992;8.856;2023-05-13T02:13:44;8.10;99.90
31207;DHT22;17834;52.992;8.856;2023-05-13T02:16:13;8.10;99.90
31207;DHT22;17834;52.992;8.856;2023-05-13T02:18:39;8.00;99.90
31207;DHT22;17834;52.992;8.856;2023-05-13T02:21:04;8.00;99.90
31207;DHT22;17834;52.992;8.856;2023-05-13T02:23:30;7.90;99.90
31207;DHT22;17834;52.992;8.856;2023-05-13T02:25:55;7.90;99.90
31207;DHT22;17834;52.992;8.856;2023-05-13T02:28:21;7.90;99.90
31207;DHT22;17834;52.992;8.856;2023-05-13T02:30:47;7.80;99.90
31207;DHT22;17834;52.992;8.856;2023-05-13T02:33:12;7.80;99.90
31207;DHT22;17834;52.992;8.856;2023-05-13T02:35:38;7.80;99.90
31207;DHT22;17834;52.992;8.856;2023-05-13T02:38:03;7.80;99.90
31207;DHT22;17834;52.992;8.856;2023-05-13T02:40:29;7.80;99.90
31207;DHT22;17834;52.992;8.856;2023-05-13T02:42:55;7.70;99.90
31207;DHT22;17834;52.992;8.856;2023-05-13T02:45:20;7.70;99.90
31207;DHT22;17834;52.992;8.856;2023-05-13T02:47:46;7.70;99.90
31207;DHT22;17834;52.992;8.856;2023-05-13T02:50:11;7.80;99.90
31207;DHT22;17834;52.992;8.856;2023-05-13T02:52:37;7.70;99.90
31207;DHT22;17834;52.992;8.856;2023-05-13T02:55:05;7.70;99.90
31207;DHT22;17834;52.992;8.856;2023-05-13T02:57:31;7.70;99.90
31207;DHT22;17834;52.992;8.856;2023-05-13T02:59:57;7.60;99.90
31207;DHT22;17834;52.992;8.856;2023-05-13T03:02:22;7.60;99.90
31207;DHT22;17834;52.992;8.856;2023-05-13T03:04:48;7.60;99.90
31207;DHT22;17834;52.992;8.856;2023-05-13T03:07:14;7.60;99.90
31207;DHT22;17834;52.992;8.856;2023-05-13T03:09:39;7.50;99.90
31207;DHT22;17834;52.992;8.856;2023-05-13T03:12:07;7.50;99.90
31207;DHT22;17834;52.992;8.856;2023-05-13T03:14:32;7.50;99.90
31207;DHT22;17834;52.992;8.856;2023-05-13T03:16:59;7.50;99.90
31207;DHT22;17834;52.992;8.856;2023-05-13T03:19:26;7.50;99.90
31207;DHT22;17834;52.992;8.856;2023-05-13T03:21:51;7.50;99.90
31207;DHT22;17834;52.992;8.856;2023-05-13T03:24:17;7.50;99.90
31207;DHT22;17834;52.992;8.856;2023-05-13T03:26:43;7.50;99.90
31207;DHT22;17834;52.992;8.856;2023-05-13T03:29:08;7.40;99.90
31207;DHT22;17834;52.992;8.856;2023-05-13T03:31:34;7.40;99.90
31207;DHT22;17834;52.992;8.856;2023-05-13T03:34:00;7.40;99.90
31207;DHT22;17834;52.992;8.856;2023-05-13T03:36:25;7.40;99.90
31207;DHT22;17834;52.992;8.856;2023-05-13T03:38:51;7.40;99.90
31207;DHT22;17834;52.992;8.856;2023-05-13T03:41:16;7.40;99.90
31207;DHT22;17834;52.992;8.856;2023-05-13T03:43:43;7.50;99.90
31207;DHT22;17834;52.992;8.856;2023-05-13T03:46:09;7.50;99.90
31207;DHT22;17834;52.992;8.856;2023-05-13T03:48:35;7.50;99.90
31207;DHT22;17834;52.992;8.856;2023-05-13T03:51:01;7.50;99.90
31207;DHT22;17834;52.992;8.856;2023-05-13T03:53:27;7.50;99.90
31207;DHT22;17834;52.992;8.856;2023-05-13T03:55:52;7.50;99.90
31207;DHT22;17834;52.992;8.856;2023-05-13T03:58:18;7.60;99.90
31207;DHT22;17834;52.992;8.856;2023-05-13T04:00:46;7.60;99.90
31207;DHT22;17834;52.992;8.856;2023-05-13T04:03:12;7.70;99.90
31207;DHT22;17834;52.992;8.856;2023-05-13T04:05:38;7.70;99.90
31207;DHT22;17834;52.992;8.856;2023-05-13T04:08:03;7.80;99.90
31207;DHT22;17834;52.992;8.856;2023-05-13T04:10:29;7.80;99.90
31207;DHT22;17834;52.992;8.856;2023-05-13T04:12:55;7.90;99.90
31207;DHT22;17834;52.992;8.856;2023-05-13T04:15:20;8.00;99.90
31207;DHT22;17834;52.992;8.856;2023-05-13T04:17:46;8.10;99.90
31207;DHT22;17834;52.992;8.856;2023-05-13T04:20:12;8.20;99.90
31207;DHT22;17834;52.992;8.856;2023-05-13T04:22:37;8.90;99.90
31207;DHT22;17834;52.992;8.856;2023-05-13T04:25:03;9.90;99.90
31207;DHT22;17834;52.992;8.856;2023-05-13T04:27:29;11.00;99.90
31207;DHT22;17834;52.992;8.856;2023-05-13T04:29:54;11.90;99.90
31207;DHT22;17834;52.992;8.856;2023-05-13T04:32:20;12.80;99.90
31207;DHT22;17834;52.992;8.856;2023-05-13T04:34:49;13.60;99.90
31207;DHT22;17834;52.992;8.856;2023-05-13T04:37:15;14.30;99.90
31207;DHT22;17834;52.992;8.856;2023-05-13T04:39:44;14.80;99.90
31207;DHT22;17834;52.992;8.856;2023-05-13T04:42:10;15.20;99.90
31207;DHT22;17834;52.992;8.856;2023-05-13T04:44:36;15.40;99.90
31207;DHT22;17834;52.992;8.856;2023-05-13T04:47:01;15.60;99.90
31207;DHT22;17834;52.992;8.856;2023-05-13T04:49:27;15.60;99.90
31207;DHT22;17834;52.992;8.856;2023-05-13T04:51:53;15.70;99.90
31207;DHT22;17834;52.992;8.856;2023-05-13T04:54:18;15.90;99.90
31207;DHT22;17834;52.992;8.856;2023-05-13T04:56:44;16.10;99.90
31207;DHT22;17834;52.992;8.856;2023-05-13T04:59:10;16.40;99.90
31207;DHT22;17834;52.992;8.856;2023-05-13T05:01:35;16.50;99.90
31207;DHT22;17834;52.992;8.856;2023-05-13T05:04:01;16.60;99.90
31207;DHT22;17834;52.992;8.856;2023-05-13T05:06:27;16.30;99.90
31207;DHT22;17834;52.992;8.856;2023-05-13T05:08:52;16.20;99.90
31207;DHT22;17834;52.992;8.856;2023-05-13T05:11:18;16.00;99.90
31207;DHT22;17834;52.992;8.856;2023-05-13T05:13:43;15.90;99.90
31207;DHT22;17834;52.992;8.856;2023-05-13T05:16:09;15.70;99.90
31207;DHT22;17834;52.992;8.856;2023-05-13T05:18:34;15.60;99.90
31207;DHT22;17834;52.992;8.856;2023-05-13T05:21:01;15.60;99.90
31207;DHT22;17834;52.992;8.856;2023-05-13T05:23:26;15.80;99.90
31207;DHT22;17834;52.992;8.856;2023-05-13T05:25:52;16.10;99.90
31207;DHT22;17834;52.992;8.856;2023-05-13T05:28:18;16.40;99.90
31207;DHT22;17834;52.992;8.856;2023-05-13T05:30:43;16.70;99.90
31207;DHT22;17834;52.992;8.856;2023-05-13T05:33:09;16.70;99.90
31207;DHT22;17834;52.992;8.856;2023-05-13T05:35:35;16.40;99.90
31207;DHT22;17834;52.992;8.856;2023-05-13T05:38:03;16.20;99.90
31207;DHT22;17834;52.992;8.856;2023-05-13T05:40:30;16.10;99.90
31207;DHT22;17834;52.992;8.856;2023-05-13T05:42:56;16.70;99.90
31207;DHT22;17834;52.992;8.856;2023-05-13T05:45:21;18.30;99.90
31207;DHT22;17834;52.992;8.856;2023-05-13T05:47:47;20.50;95.20
31207;DHT22;17834;52.992;8.856;2023-05-13T05:50:12;22.20;79.00
31207;DHT22;17834;52.992;8.856;2023-05-13T05:52:38;23.70;65.30
31207;DHT22;17834;52.992;8.856;2023-05-13T05:55:04;24.90;59.60
31207;DHT22;17834;52.992;8.856;2023-05-13T05:57:31;25.80;53.60
31207;DHT22;17834;52.992;8.856;2023-05-13T05:59:57;26.60;51.30
31207;DHT22;17834;52.992;8.856;2023-05-13T06:02:22;26.80;49.30
31207;DHT22;17834;52.992;8.856;2023-05-13T06:04:48;27.30;48.50
31207;DHT22;17834;52.992;8.856;2023-05-13T06:07:13;28.00;47.60
31207;DHT22;17834;52.992;8.856;2023-05-13T06:09:39;28.00;45.60
31207;DHT22;17834;52.992;8.856;2023-05-13T06:12:05;27.70;45.20
31207;DHT22;17834;52.992;8.856;2023-05-13T06:14:30;27.00;45.30
31207;DHT22;17834;52.992;8.856;2023-05-13T06:16:56;26.70;45.70
31207;DHT22;17834;52.992;8.856;2023-05-13T06:19:21;26.20;47.20
31207;DHT22;17834;52.992;8.856;2023-05-13T06:21:47;25.00;48.60
31207;DHT22;17834;52.992;8.856;2023-05-13T06:24:13;23.20;50.90
31207;DHT22;17834;52.992;8.856;2023-05-13T06:26:38;21.60;54.40
31207;DHT22;17834;52.992;8.856;2023-05-13T06:29:04;20.20;57.30
31207;DHT22;17834;52.992;8.856;2023-05-13T06:31:29;19.20;60.40
31207;DHT22;17834;52.992;8.856;2023-05-13T06:33:55;18.30;64.00
31207;DHT22;17834;52.992;8.856;2023-05-13T06:36:20;17.80;67.70
31207;DHT22;17834;52.992;8.856;2023-05-13T06:38:46;17.40;71.40
31207;DHT22;17834;52.992;8.856;2023-05-13T06:41:12;16.90;73.00
31207;DHT22;17834;52.992;8.856;2023-05-13T06:43:37;16.90;76.20
31207;DHT22;17834;52.992;8.856;2023-05-13T06:46:03;16.80;79.20
31207;DHT22;17834;52.992;8.856;2023-05-13T06:48:29;16.80;83.20
31207;DHT22;17834;52.992;8.856;2023-05-13T06:50:54;16.90;84.30
31207;DHT22;17834;52.992;8.856;2023-05-13T06:53:20;16.90;85.50
31207;DHT22;17834;52.992;8.856;2023-05-13T06:55:46;16.90;85.40
31207;DHT22;17834;52.992;8.856;2023-05-13T06:58:12;16.80;86.30
31207;DHT22;17834;52.992;8.856;2023-05-13T07:00:39;16.60;88.30
31207;DHT22;17834;52.992;8.856;2023-05-13T07:03:05;16.50;89.90
31207;DHT22;17834;52.992;8.856;2023-05-13T07:05:32;16.50;91.20
31207;DHT22;17834;52.992;8.856;2023-05-13T07:07:57;16.60;92.40
31207;DHT22;17834;52.992;8.856;2023-05-13T07:10:23;16.60;92.60
31207;DHT22;17834;52.992;8.856;2023-05-13T07:12:49;16.70;92.70
31207;DHT22;17834;52.992;8.856;2023-05-13T07:15:14;17.70;92.40
31207;DHT22;17834;52.992;8.856;2023-05-13T07:17:41;19.30;87.40
31207;DHT22;17834;52.992;8.856;2023-05-13T07:20:07;21.60;79.10
31207;DHT22;17834;52.992;8.856;2023-05-13T07:22:34;23.60;69.10
31207;DHT22;17834;52.992;8.856;2023-05-13T07:25:00;25.20;58.10
31207;DHT22;17834;52.992;8.856;2023-05-13T07:27:25;26.20;54.30
31207;DHT22;17834;52.992;8.856;2023-05-13T07:29:51;27.20;50.80
31207;DHT22;17834;52.992;8.856;2023-05-13T07:32:16;27.80;49.10
31207;DHT22;17834;52.992;8.856;2023-05-13T07:34:42;28.30;47.60
31207;DHT22;17834;52.992;8.856;2023-05-13T07:37:07;28.30;46.70
31207;DHT22;17834;52.992;8.856;2023-05-13T07:39:33;27.90;46.30
31207;DHT22;17834;52.992;8.856;2023-05-13T07:41:58;26.70;49.20
31207;DHT22;17834;52.992;8.856;2023-05-13T07:44:24;25.10;51.20
31207;DHT22;17834;52.992;8.856;2023-05-13T07:46:50;23.60;54.00
31207;DHT22;17834;52.992;8.856;2023-05-13T07:49:18;22.30;57.40
31207;DHT22;17834;52.992;8.856;2023-05-13T07:51:44;21.10;60.20
31207;DHT22;17834;52.992;8.856;2023-05-13T07:54:10;20.40;63.80
31207;DHT22;17834;52.992;8.856;2023-05-13T07:56:35;19.70;66.20
31207;DHT22;17834;52.992;8.856;2023-05-13T07:59:02;19.30;67.50
31207;DHT22;17834;52.992;8.856;2023-05-13T08:01:28;19.00;68.60
31207;DHT22;17834;52.992;8.856;2023-05-13T08:03:54;18.70;70.20
31207;DHT22;17834;52.992;8.856;2023-05-13T08:06:19;18.50;72.50
31207;DHT22;17834;52.992;8.856;2023-05-13T08:08:45;18.50;74.10
31207;DHT22;17834;52.992;8.856;2023-05-13T08:11:10;18.30;75.10
31207;DHT22;17834;52.992;8.856;2023-05-13T08:13:37;18.30;76.90
31207;DHT22;17834;52.992;8.856;2023-05-13T08:16:03;18.30;78.20
31207;DHT22;17834;52.992;8.856;2023-05-13T08:18:31;18.30;79.40
31207;DHT22;17834;52.992;8.856;2023-05-13T08:20:57;18.30;80.10
31207;DHT22;17834;52.992;8.856;2023-05-13T08:23:22;18.20;80.80
31207;DHT22;17834;52.992;8.856;2023-05-13T08:25:50;18.30;81.30
31207;DHT22;17834;52.992;8.856;2023-05-13T08:28:15;18.30;82.20
31207;DHT22;17834;52.992;8.856;2023-05-13T08:30:41;18.30;82.70
31207;DHT22;17834;52.992;8.856;2023-05-13T08:33:09;18.30;81.80
31207;DHT22;17834;52.992;8.856;2023-05-13T08:35:35;18.40;82.90
31207;DHT22;17834;52.992;8.856;2023-05-13T08:38:01;18.50;84.30
31207;DHT22;17834;52.992;8.856;2023-05-13T08:40:30;18.60;83.40
31207;DHT22;17834;52.992;8.856;2023-05-13T08:42:56;18.70;84.30
31207;DHT22;17834;52.992;8.856;2023-05-13T08:45:28;18.70;83.30
31207;DHT22;17834;52.992;8.856;2023-05-13T08:47:59;18.80;83.80
31207;DHT22;17834;52.992;8.856;2023-05-13T08:50:30;18.90;84.60
31207;DHT22;17834;52.992;8.856;2023-05-13T08:52:57;19.00;85.00
31207;DHT22;17834;52.992;8.856;2023-05-13T08:55:23;19.00;82.70
31207;DHT22;17834;52.992;8.856;2023-05-13T08:57:49;19.10;81.00
31207;DHT22;17834;52.992;8.856;2023-05-13T09:00:15;19.10;80.10
31207;DHT22;17834;52.992;8.856;2023-05-13T09:02:41;19.20;78.50
31207;DHT22;17834;52.992;8.856;2023-05-13T09:05:08;19.20;78.50
31207;DHT22;17834;52.992;8.856;2023-05-13T09:07:34;19.30;79.40
31207;DHT22;17834;52.992;8.856;2023-05-13T09:10:01;19.40;81.00
31207;DHT22;17834;52.992;8.856;2023-05-13T09:12:52;19.60;78.60
31207;DHT22;17834;52.992;8.856;2023-05-13T09:15:20;19.60;78.60
31207;DHT22;17834;52.992;8.856;2023-05-13T09:17:50;19.70;77.50
31207;DHT22;17834;52.992;8.856;2023-05-13T09:20:18;19.80;75.50
31207;DHT22;17834;52.992;8.856;2023-05-13T09:22:49;19.90;75.60
31207;DHT22;17834;52.992;8.856;2023-05-13T09:25:17;20.00;76.40
31207;DHT22;17834;52.992;8.856;2023-05-13T09:27:47;20.00;76.50
31207;DHT22;17834;52.992;8.856;2023-05-13T09:30:13;20.20;75.90
31207;DHT22;17834;52.992;8.856;2023-05-13T09:32:39;20.20;75.20
31207;DHT22;17834;52.992;8.856;2023-05-13T09:35:15;20.20;75.20
31207;DHT22;17834;52.992;8.856;2023-05-13T09:37:47;20.30;73.90
31207;DHT22;17834;52.992;8.856;2023-05-13T09:40:14;20.30;70.00
31207;DHT22;17834;52.992;8.856;2023-05-13T09:42:44;20.30;71.80
31207;DHT22;17834;52.992;8.856;2023-05-13T09:45:12;20.50;73.50
31207;DHT22;17834;52.992;8.856;2023-05-13T09:47:38;20.70;71.90
31207;DHT22;17834;52.992;8.856;2023-05-13T09:50:04;20.70;70.60
31207;DHT22;17834;52.992;8.856;2023-05-13T09:52:31;20.70;71.50
31207;DHT22;17834;52.992;8.856;2023-05-13T09:54:58;20.80;70.80
31207;DHT22;17834;52.992;8.856;2023-05-13T09:57:27;20.80;69.50
31207;DHT22;17834;52.992;8.856;2023-05-13T09:59:56;21.00;71.20
31207;DHT22;17834;52.992;8.856;2023-05-13T10:02:23;21.00;68.10
31207;DHT22;17834;52.992;8.856;2023-05-13T10:04:50;21.10;69.80
31207;DHT22;17834;52.992;8.856;2023-05-13T10:07:15;21.30;70.70
31207;DHT22;17834;52.992;8.856;2023-05-13T10:09:43;21.40;68.80
31207;DHT22;17834;52.992;8.856;2023-05-13T10:12:13;21.50;68.80
31207;DHT22;17834;52.992;8.856;2023-05-13T10:14:39;21.70;70.90
31207;DHT22;17834;52.992;8.856;2023-05-13T10:17:06;21.70;66.90
31207;DHT22;17834;52.992;8.856;2023-05-13T10:19:33;21.50;66.20
31207;DHT22;17834;52.992;8.856;2023-05-13T10:22:00;21.50;67.20
31207;DHT22;17834;52.992;8.856;2023-05-13T10:24:26;21.40;67.10
31207;DHT22;17834;52.992;8.856;2023-05-13T10:26:53;21.50;68.10
31207;DHT22;17834;52.992;8.856;2023-05-13T10:29:21;21.50;67.70
31207;DHT22;17834;52.992;8.856;2023-05-13T10:31:47;21.40;67.90
31207;DHT22;17834;52.992;8.856;2023-05-13T10:34:13;21.50;68.40
31207;DHT22;17834;52.992;8.856;2023-05-13T10:39:54;21.40;64.80
31207;DHT22;17834;52.992;8.856;2023-05-13T10:42:42;21.50;63.80
31207;DHT22;17834;52.992;8.856;2023-05-13T10:45:08;21.50;65.30
31207;DHT22;17834;52.992;8.856;2023-05-13T10:47:35;21.50;64.40
31207;DHT22;17834;52.992;8.856;2023-05-13T10:50:24;21.60;61.40
31207;DHT22;17834;52.992;8.856;2023-05-13T10:52:54;21.70;62.20
31207;DHT22;17834;52.992;8.856;2023-05-13T10:55:20;21.70;63.50
31207;DHT22;17834;52.992;8.856;2023-05-13T10:58:12;21.80;63.80
31207;DHT22;17834;52.992;8.856;2023-05-13T11:00:39;22.00;64.10
31207;DHT22;17834;52.992;8.856;2023-05-13T11:03:26;22.00;62.90
31207;DHT22;17834;52.992;8.856;2023-05-13T11:06:00;22.00;62.30
31207;DHT22;17834;52.992;8.856;2023-05-13T11:08:38;22.00;60.50
31207;DHT22;17834;52.992;8.856;2023-05-13T11:13:48;21.90;60.80
31207;DHT22;17834;52.992;8.856;2023-05-13T11:16:13;22.00;62.00
31207;DHT22;17834;52.992;8.856;2023-05-13T11:18:39;22.20;60.60
31207;DHT22;17834;52.992;8.856;2023-05-13T11:21:06;22.40;60.80
31207;DHT22;17834;52.992;8.856;2023-05-13T11:23:33;22.50;60.10
31207;DHT22;17834;52.992;8.856;2023-05-13T11:26:14;22.70;61.10
31207;DHT22;17834;52.992;8.856;2023-05-13T11:31:54;23.00;57.50
31207;DHT22;17834;52.992;8.856;2023-05-13T11:34:22;23.00;58.80
31207;DHT22;17834;52.992;8.856;2023-05-13T11:36:48;23.30;57.10
31207;DHT22;17834;52.992;8.856;2023-05-13T11:39:19;23.30;56.10
31207;DHT22;17834;52.992;8.856;2023-05-13T11:41:46;23.40;57.10
31207;DHT22;17834;52.992;8.856;2023-05-13T11:44:17;23.20;55.50
31207;DHT22;17834;52.992;8.856;2023-05-13T11:46:54;23.00;56.40
31207;DHT22;17834;52.992;8.856;2023-05-13T11:49:39;22.90;56.10
31207;DHT22;17834;52.992;8.856;2023-05-13T11:54:48;23.20;56.60
31207;DHT22;17834;52.992;8.856;2023-05-13T11:57:27;23.60;56.90
31207;DHT22;17834;52.992;8.856;2023-05-13T11:59:57;24.00;55.90
31207;DHT22;17834;52.992;8.856;2023-05-13T12:02:30;24.20;54.30
31207;DHT22;17834;52.992;8.856;2023-05-13T12:05:06;24.30;54.30
31207;DHT22;17834;52.992;8.856;2023-05-13T12:07:32;24.40;53.60
31207;DHT22;17834;52.992;8.856;2023-05-13T12:10:00;24.40;52.70
31207;DHT22;17834;52.992;8.856;2023-05-13T12:12:27;24.40;51.50
31207;DHT22;17834;52.992;8.856;2023-05-13T12:14:57;24.20;50.70
31207;DHT22;17834;52.992;8.856;2023-05-13T12:17:24;24.30;51.50
31207;DHT22;17834;52.992;8.856;2023-05-13T12:20:12;24.40;49.30
31207;DHT22;17834;52.992;8.856;2023-05-13T12:28:18;24.90;48.50
31207;DHT22;17834;52.992;8.856;2023-05-13T12:30:55;25.10;49.00
31207;DHT22;17834;52.992;8.856;2023-05-13T12:33:23;25.00;50.00
31207;DHT22;17834;52.992;8.856;2023-05-13T12:35:51;24.80;49.40
31207;DHT22;17834;52.992;8.856;2023-05-13T12:38:19;24.60;50.40
31207;DHT22;17834;52.992;8.856;2023-05-13T12:40:46;24.50;50.80
31207;DHT22;17834;52.992;8.856;2023-05-13T12:43:12;24.20;51.10
31207;DHT22;17834;52.992;8.856;2023-05-13T12:45:40;23.90;51.90
31207;DHT22;17834;52.992;8.856;2023-05-13T12:48:06;23.80;51.50
31207;DHT22;17834;52.992;8.856;2023-05-13T12:50:31;23.60;50.50
31207;DHT22;17834;52.992;8.856;2023-05-13T12:52:57;23.50;50.70
31207;DHT22;17834;52.992;8.856;2023-05-13T12:55:24;23.80;50.80
31207;DHT22;17834;52.992;8.856;2023-05-13T12:58:01;24.00;50.10
31207;DHT22;17834;52.992;8.856;2023-05-13T13:00:28;24.20;49.90
31207;DHT22;17834;52.992;8.856;2023-05-13T13:02:54;24.30;49.70
31207;DHT22;17834;52.992;8.856;2023-05-13T13:05:20;24.40;49.80
31207;DHT22;17834;52.992;8.856;2023-05-13T13:07:46;24.30;50.10
31207;DHT22;17834;52.992;8.856;2023-05-13T13:10:12;24.40;49.80
31207;DHT22;17834;52.992;8.856;2023-05-13T13:12:37;24.20;47.70
31207;DHT22;17834;52.992;8.856;2023-05-13T13:15:08;24.30;49.10
31207;DHT22;17834;52.992;8.856;2023-05-13T13:17:34;24.10;48.60
31207;DHT22;17834;52.992;8.856;2023-05-13T13:20:00;24.00;49.70
31207;DHT22;17834;52.992;8.856;2023-05-13T13:22:26;23.80;49.50
31207;DHT22;17834;52.992;8.856;2023-05-13T13:24:52;23.50;49.50
31207;DHT22;17834;52.992;8.856;2023-05-13T13:27:17;23.30;49.10
31207;DHT22;17834;52.992;8.856;2023-05-13T13:29:43;23.30;49.90
31207;DHT22;17834;52.992;8.856;2023-05-13T13:32:08;23.10;50.50
31207;DHT22;17834;52.992;8.856;2023-05-13T13:34:34;23.10;51.00
31207;DHT22;17834;52.992;8.856;2023-05-13T13:36:59;23.30;49.70
31207;DHT22;17834;52.992;8.856;2023-05-13T13:39:25;23.40;48.80
31207;DHT22;17834;52.992;8.856;2023-05-13T13:41:51;23.60;49.70
31207;DHT22;17834;52.992;8.856;2023-05-13T13:44:16;23.70;48.00
31207;DHT22;17834;52.992;8.856;2023-05-13T13:46:42;23.80;48.50
31207;DHT22;17834;52.992;8.856;2023-05-13T13:49:07;23.60;46.80
31207;DHT22;17834;52.992;8.856;2023-05-13T13:51:33;23.60;46.30
31207;DHT22;17834;52.992;8.856;2023-05-13T13:54:08;23.50;46.50
31207;DHT22;17834;52.992;8.856;2023-05-13T13:56:37;23.40;47.20
31207;DHT22;17834;52.992;8.856;2023-05-13T13:59:03;23.40;48.00
31207;DHT22;17834;52.992;8.856;2023-05-13T14:01:28;23.40;47.00
31207;DHT22;17834;52.992;8.856;2023-05-13T14:04:09;23.50;46.90
31207;DHT22;17834;52.992;8.856;2023-05-13T14:06:35;23.70;46.80
31207;DHT22;17834;52.992;8.856;2023-05-13T14:09:01;23.80;46.50
31207;DHT22;17834;52.992;8.856;2023-05-13T14:11:28;23.90;46.50
31207;DHT22;17834;52.992;8.856;2023-05-13T14:13:53;23.90;47.80
31207;DHT22;17834;52.992;8.856;2023-05-13T14:16:19;23.90;47.40
31207;DHT22;17834;52.992;8.856;2023-05-13T14:18:44;23.90;47.20
31207;DHT22;17834;52.992;8.856;2023-05-13T14:21:10;23.90;47.90
31207;DHT22;17834;52.992;8.856;2023-05-13T14:23:36;23.70;46.90
31207;DHT22;17834;52.992;8.856;2023-05-13T14:26:02;23.50;46.70
31207;DHT22;17834;52.992;8.856;2023-05-13T14:28:28;23.40;46.40
31207;DHT22;17834;52.992;8.856;2023-05-13T14:30:53;23.40;46.60
31207;DHT22;17834;52.992;8.856;2023-05-13T14:33:19;23.50;46.20
31207;DHT22;17834;52.992;8.856;2023-05-13T14:35:44;23.50;45.10
31207;DHT22;17834;52.992;8.856;2023-05-13T14:38:10;23.70;46.00
31207;DHT22;17834;52.992;8.856;2023-05-13T14:40:35;23.80;46.50
31207;DHT22;17834;52.992;8.856;2023-05-13T14:43:02;23.80;46.10
31207;DHT22;17834;52.992;8.856;2023-05-13T14:45:27;23.80;44.80
31207;DHT22;17834;52.992;8.856;2023-05-13T14:47:53;23.80;45.50
31207;DHT22;17834;52.992;8.856;2023-05-13T14:50:19;23.70;45.80
31207;DHT22;17834;52.992;8.856;2023-05-13T14:52:44;23.50;46.60
31207;DHT22;17834;52.992;8.856;2023-05-13T14:55:10;23.30;47.50
31207;DHT22;17834;52.992;8.856;2023-05-13T14:57:36;23.10;47.70
31207;DHT22;17834;52.992;8.856;2023-05-13T15:00:02;22.80;47.50
31207;DHT22;17834;52.992;8.856;2023-05-13T15:02:28;22.80;47.90
31207;DHT22;17834;52.992;8.856;2023-05-13T15:04:53;22.80;45.50
31207;DHT22;17834;52.992;8.856;2023-05-13T15:07:19;22.90;45.00
31207;DHT22;17834;52.992;8.856;2023-05-13T15:09:45;22.90;45.10
31207;DHT22;17834;52.992;8.856;2023-05-13T15:12:10;23.10;46.80
31207;DHT22;17834;52.992;8.856;2023-05-13T15:14:36;23.30;45.60
31207;DHT22;17834;52.992;8.856;2023-05-13T15:17:01;23.30;47.00
31207;DHT22;17834;52.992;8.856;2023-05-13T15:19:27;23.30;45.70
31207;DHT22;17834;52.992;8.856;2023-05-13T15:21:53;23.40;47.90
31207;DHT22;17834;52.992;8.856;2023-05-13T15:24:18;23.40;47.50
31207;DHT22;17834;52.992;8.856;2023-05-13T15:26:44;23.20;45.20
31207;DHT22;17834;52.992;8.856;2023-05-13T15:29:10;23.10;46.80
31207;DHT22;17834;52.992;8.856;2023-05-13T15:31:36;22.90;45.70
31207;DHT22;17834;52.992;8.856;2023-05-13T15:34:01;22.70;45.70
31207;DHT22;17834;52.992;8.856;2023-05-13T15:36:27;22.60;45.90
31207;DHT22;17834;52.992;8.856;2023-05-13T15:38:53;22.60;46.30
31207;DHT22;17834;52.992;8.856;2023-05-13T15:41:18;22.50;47.40
31207;DHT22;17834;52.992;8.856;2023-05-13T15:43:44;22.60;47.10
31207;DHT22;17834;52.992;8.856;2023-05-13T15:46:09;22.60;47.60
31207;DHT22;17834;52.992;8.856;2023-05-13T15:48:35;22.50;45.20
31207;DHT22;17834;52.992;8.856;2023-05-13T15:51:00;22.60;46.70
31207;DHT22;17834;52.992;8.856;2023-05-13T15:53:28;22.60;46.50